createdAt,value
2023-05-11T00:00:07.063Z,14.37
2023-05-11T00:01:07.073Z,14.38
2023-05-11T00:02:06.965Z,14.20
2023-05-11T00:03:07.219Z,14.31
2023-05-11T00:04:07.251Z,14.22
2023-05-11T00:05:06.899Z,14.26
2023-05-11T00:06:06.772Z,14.22
2023-05-11T00:07:06.916Z,14.34
2023-05-11T00:08:06.685Z,14.33
2023-05-11T00:09:06.742Z,14.23
2023-05-11T00:10:06.608Z,14.22
2023-05-11T00:11:06.554Z,14.31
2023-05-11T00:12:06.514Z,14.37
2023-05-11T00:13:06.569Z,14.26
2023-05-11T00:14:06.423Z,14.28
2023-05-11T00:15:06.979Z,14.34
2023-05-11T00:16:06.495Z,14.33
2023-05-11T00:17:06.289Z,14.36
2023-05-11T00:18:06.286Z,14.33
2023-05-11T00:19:06.499Z,14.18
2023-05-11T00:20:06.172Z,14.23
2023-05-11T00:21:06.149Z,14.33
2023-05-11T00:22:06.208Z,14.23
2023-05-11T00:23:06.038Z,14.23
2023-05-11T00:24:05.997Z,14.19
2023-05-11T00:25:06.433Z,14.13
2023-05-11T00:26:05.897Z,14.12
2023-05-11T00:27:06.055Z,14.16
2023-05-11T00:28:05.816Z,14.11
2023-05-11T00:29:05.764Z,14.15
2023-05-11T00:30:05.719Z,14.15
2023-05-11T00:31:05.945Z,14.16
2023-05-11T00:32:05.626Z,14.19
2023-05-11T00:33:05.854Z,14.05
2023-05-11T00:34:05.550Z,14.07
2023-05-11T00:35:05.493Z,14.05
2023-05-11T00:36:05.451Z,14.04
2023-05-11T00:37:05.701Z,14.05
2023-05-11T00:38:05.393Z,14.15
2023-05-11T00:39:05.510Z,14.19
2023-05-11T00:40:05.275Z,14.20
2023-05-11T00:41:05.257Z,14.07
2023-05-11T00:42:05.183Z,14.25
2023-05-11T00:43:05.533Z,14.23
2023-05-11T00:44:05.100Z,14.23
2023-05-11T00:45:05.146Z,14.18
2023-05-11T00:46:05.039Z,14.12
2023-05-11T00:47:04.981Z,14.19
2023-05-11T00:48:04.998Z,14.25
2023-05-11T00:49:04.964Z,14.28
2023-05-11T00:50:04.830Z,14.23
2023-05-11T00:51:04.982Z,14.19
2023-05-11T00:52:04.747Z,14.26
2023-05-11T00:53:04.703Z,14.31
2023-05-11T00:54:04.652Z,14.13
2023-05-11T00:55:05.013Z,14.18
2023-05-11T00:56:04.567Z,14.18
2023-05-11T00:57:04.618Z,14.12
2023-05-11T00:58:04.508Z,14.05
2023-05-11T00:59:04.444Z,14.08
2023-05-11T01:00:04.638Z,14.11
2023-05-11T01:01:04.396Z,14.05
2023-05-11T01:02:04.533Z,14.12
2023-05-11T01:03:04.305Z,14.05
2023-05-11T01:04:04.489Z,14.00
2023-05-11T01:05:04.181Z,14.05
2023-05-11T01:06:04.270Z,14.01
2023-05-11T01:07:04.134Z,14.07
2023-05-11T01:08:04.296Z,14.03
2023-05-11T01:09:04.007Z,13.94
2023-05-11T01:10:04.115Z,13.95
2023-05-11T01:11:03.964Z,13.85
2023-05-11T01:12:04.110Z,13.91
2023-05-11T01:13:03.856Z,13.93
2023-05-11T01:14:03.950Z,13.93
2023-05-11T01:15:03.763Z,13.91
2023-05-11T01:16:03.966Z,13.87
2023-05-11T01:17:03.890Z,13.86
2023-05-11T01:18:03.795Z,13.94
2023-05-11T01:19:03.728Z,13.95
2023-05-11T01:20:03.761Z,13.82
2023-05-11T01:21:03.473Z,13.94
2023-05-11T01:22:03.577Z,13.95
2023-05-11T01:23:03.392Z,13.91
2023-05-11T01:24:03.588Z,13.85
2023-05-11T01:25:03.436Z,13.86
2023-05-11T01:26:03.390Z,13.87
2023-05-11T01:27:03.220Z,13.89
2023-05-11T01:28:03.168Z,13.85
2023-05-11T01:29:03.138Z,13.85
2023-05-11T01:30:03.219Z,13.94
2023-05-11T01:31:03.123Z,13.82
2023-05-11T01:32:04.075Z,13.94
2023-05-11T01:33:02.967Z,13.78
2023-05-11T01:34:02.906Z,13.80
2023-05-11T01:35:02.867Z,13.91
2023-05-11T01:36:03.877Z,13.87
2023-05-11T01:37:02.925Z,13.98
2023-05-11T01:38:02.875Z,13.95
2023-05-11T01:39:02.675Z,13.86
2023-05-11T01:40:02.634Z,13.87
2023-05-11T01:41:02.598Z,13.82
2023-05-11T01:42:02.696Z,13.79
2023-05-11T01:43:02.584Z,13.91
2023-05-11T01:44:02.714Z,13.87
2023-05-11T01:45:02.409Z,13.91
2023-05-11T01:46:02.386Z,13.87
2023-05-11T01:47:02.343Z,13.87
2023-05-11T01:48:02.632Z,13.94
2023-05-11T01:49:02.382Z,14.03
2023-05-11T01:50:02.341Z,13.91
2023-05-11T01:51:02.399Z,14.01
2023-05-11T01:52:02.102Z,14.01
2023-05-11T01:53:02.059Z,14.01
2023-05-11T01:54:02.168Z,13.98
2023-05-11T01:55:01.973Z,14.01
2023-05-11T01:56:01.971Z,13.98
2023-05-11T01:57:01.977Z,14.03
2023-05-11T01:58:01.994Z,14.05
2023-05-11T01:59:01.794Z,14.08
2023-05-11T02:00:02.009Z,14.01
2023-05-11T02:01:01.900Z,14.11
2023-05-11T02:02:01.895Z,14.07
2023-05-11T02:03:01.734Z,14.01
2023-05-11T02:04:01.574Z,14.04
2023-05-11T02:05:01.532Z,14.08
2023-05-11T02:06:01.647Z,13.97
2023-05-11T02:07:01.506Z,14.04
2023-05-11T02:08:01.673Z,14.01
2023-05-11T02:09:01.361Z,13.91
2023-05-11T02:10:01.305Z,13.87
2023-05-11T02:11:01.265Z,13.95
2023-05-11T02:12:01.490Z,14.04
2023-05-11T02:13:01.347Z,13.97
2023-05-11T02:14:01.305Z,13.94
2023-05-11T02:15:01.094Z,14.04
2023-05-11T02:16:01.062Z,14.01
2023-05-11T02:17:01.109Z,14.00
2023-05-11T02:18:01.016Z,14.07
2023-05-11T02:19:00.970Z,14.07
2023-05-11T02:20:01.134Z,14.08
2023-05-11T02:21:00.839Z,14.12
2023-05-11T02:22:00.785Z,14.05
2023-05-11T02:23:01.157Z,14.11
2023-05-11T02:24:00.703Z,14.18
2023-05-11T02:25:00.757Z,14.08
2023-05-11T02:26:00.607Z,14.16
2023-05-11T02:27:00.774Z,14.13
2023-05-11T02:28:00.515Z,14.18
2023-05-11T02:29:00.789Z,14.16
2023-05-11T02:30:00.451Z,14.18
2023-05-11T02:31:00.609Z,14.13
2023-05-11T02:32:00.337Z,14.08
2023-05-11T02:33:00.395Z,14.18
2023-05-11T02:34:00.259Z,14.23
2023-05-11T02:35:00.433Z,14.19
2023-05-11T02:36:00.187Z,14.19
2023-05-11T02:37:00.240Z,14.18
2023-05-11T02:38:00.098Z,14.11
2023-05-11T02:39:00.058Z,14.11
2023-05-11T02:39:59.983Z,14.08
2023-05-11T02:41:01.080Z,14.12
2023-05-11T02:41:59.902Z,14.04
2023-05-11T02:43:00.328Z,14.13
2023-05-11T02:43:59.818Z,14.15
2023-05-11T02:44:59.883Z,14.18
2023-05-11T02:45:59.731Z,14.12
2023-05-11T02:46:59.923Z,14.04
2023-05-11T02:47:59.721Z,14.11
2023-05-11T02:48:59.706Z,14.03
2023-05-11T02:49:59.551Z,14.01
2023-05-11T02:50:59.714Z,14.00
2023-05-11T02:51:59.470Z,13.91
2023-05-11T02:52:59.444Z,13.91
2023-05-11T02:53:59.529Z,13.87
2023-05-11T02:54:59.329Z,13.87
2023-05-11T02:55:59.545Z,13.79
2023-05-11T02:56:59.254Z,13.98
2023-05-11T02:57:59.642Z,13.87
2023-05-11T02:58:59.150Z,13.87
2023-05-11T02:59:59.403Z,13.85
2023-05-11T03:00:59.103Z,13.82
2023-05-11T03:01:59.276Z,13.75
2023-05-11T03:02:59.059Z,13.71
2023-05-11T03:03:59.229Z,13.76
2023-05-11T03:04:59.049Z,13.68
2023-05-11T03:05:59.007Z,13.70
2023-05-11T03:06:58.802Z,13.70
2023-05-11T03:07:59.056Z,13.68
2023-05-11T03:08:58.825Z,13.57
2023-05-11T03:09:58.671Z,13.64
2023-05-11T03:10:59.066Z,13.54
2023-05-11T03:11:58.604Z,13.62
2023-05-11T03:12:58.651Z,13.64
2023-05-11T03:13:58.503Z,13.58
2023-05-11T03:14:58.446Z,13.61
2023-05-11T03:15:58.405Z,13.64
2023-05-11T03:16:58.458Z,13.62
2023-05-11T03:17:58.541Z,13.62
2023-05-11T03:18:58.315Z,13.61
2023-05-11T03:19:58.503Z,13.65
2023-05-11T03:21:00.554Z,13.68
2023-05-11T03:21:58.134Z,13.62
2023-05-11T03:22:58.331Z,13.60
2023-05-11T03:23:58.052Z,13.52
2023-05-11T03:24:59.171Z,13.60
2023-05-11T03:25:57.959Z,13.64
2023-05-11T03:26:57.947Z,13.67
2023-05-11T03:27:58.969Z,13.67
2023-05-11T03:28:58.001Z,13.65
2023-05-11T03:29:57.971Z,13.73
2023-05-11T03:30:57.742Z,13.71
2023-05-11T03:31:59.873Z,13.68
2023-05-11T03:32:57.859Z,13.73
2023-05-11T03:33:57.616Z,13.70
2023-05-11T03:34:57.589Z,13.64
2023-05-11T03:35:57.801Z,13.75
2023-05-11T03:36:57.484Z,13.78
2023-05-11T03:37:57.632Z,13.76
2023-05-11T03:38:57.618Z,13.78
2023-05-11T03:39:57.345Z,13.78
2023-05-11T03:40:57.644Z,13.82
2023-05-11T03:41:57.254Z,13.83
2023-05-11T03:42:57.440Z,13.89
2023-05-11T03:43:57.183Z,13.80
2023-05-11T03:44:57.118Z,13.85
2023-05-11T03:45:57.745Z,13.89
2023-05-11T03:46:57.032Z,13.87
2023-05-11T03:47:57.342Z,13.87
2023-05-11T03:48:56.939Z,13.79
2023-05-11T03:49:57.087Z,13.73
2023-05-11T03:50:56.863Z,13.73
2023-05-11T03:51:57.144Z,13.68
2023-05-11T03:52:57.981Z,13.70
2023-05-11T03:53:56.907Z,13.75
2023-05-11T03:54:56.682Z,13.79
2023-05-11T03:55:56.918Z,13.73
2023-05-11T03:56:56.595Z,13.73
2023-05-11T03:57:56.732Z,13.75
2023-05-11T03:58:56.525Z,13.85
2023-05-11T03:59:56.752Z,13.85
2023-05-11T04:00:56.410Z,13.78
2023-05-11T04:01:56.559Z,13.83
2023-05-11T04:02:56.414Z,13.86
2023-05-11T04:03:56.745Z,13.86
2023-05-11T04:04:56.235Z,13.82
2023-05-11T04:05:56.588Z,13.78
2023-05-11T04:06:56.152Z,13.54
2023-05-11T04:07:56.101Z,13.30
2023-05-11T04:08:56.121Z,13.19
2023-05-11T04:09:57.232Z,13.06
2023-05-11T04:10:55.965Z,13.03
2023-05-11T04:11:56.228Z,12.91
2023-05-11T04:12:55.900Z,13.06
2023-05-11T04:13:56.034Z,13.09
2023-05-11T04:14:55.792Z,13.01
2023-05-11T04:15:56.081Z,12.99
2023-05-11T04:16:55.696Z,12.98
2023-05-11T04:17:55.916Z,13.08
2023-05-11T04:18:55.943Z,13.06
2023-05-11T04:19:55.600Z,13.09
2023-05-11T04:20:55.524Z,13.08
2023-05-11T04:21:55.705Z,13.09
2023-05-11T04:22:55.448Z,13.20
2023-05-11T04:23:55.495Z,13.20
2023-05-11T04:24:55.376Z,13.16
2023-05-11T04:25:55.290Z,13.24
2023-05-11T04:26:55.250Z,13.21
2023-05-11T04:27:55.314Z,13.27
2023-05-11T04:28:55.163Z,13.37
2023-05-11T04:29:55.326Z,13.36
2023-05-11T04:30:55.126Z,13.36
2023-05-11T04:31:55.053Z,13.45
2023-05-11T04:32:55.008Z,13.37
2023-05-11T04:33:55.176Z,13.43
2023-05-11T04:34:54.951Z,13.46
2023-05-11T04:35:54.981Z,13.47
2023-05-11T04:36:54.842Z,13.52
2023-05-11T04:37:54.768Z,13.57
2023-05-11T04:38:54.984Z,13.60
2023-05-11T04:39:54.673Z,13.65
2023-05-11T04:40:54.794Z,13.73
2023-05-11T04:41:54.590Z,13.71
2023-05-11T04:42:55.012Z,13.68
2023-05-11T04:43:55.662Z,13.67
2023-05-11T04:44:54.466Z,13.80
2023-05-11T04:45:54.624Z,13.75
2023-05-11T04:46:54.401Z,13.75
2023-05-11T04:47:54.504Z,13.68
2023-05-11T04:48:54.318Z,13.67
2023-05-11T04:49:54.233Z,13.71
2023-05-11T04:50:54.189Z,13.78
2023-05-11T04:51:54.261Z,13.80
2023-05-11T04:52:54.096Z,13.76
2023-05-11T04:53:54.272Z,13.75
2023-05-11T04:54:54.343Z,13.75
2023-05-11T04:55:54.054Z,13.78
2023-05-11T04:56:53.921Z,13.87
2023-05-11T04:57:54.101Z,13.83
2023-05-11T04:58:53.836Z,13.86
2023-05-11T04:59:53.989Z,13.83
2023-05-11T05:00:53.816Z,13.85
2023-05-11T05:01:53.704Z,13.82
2023-05-11T05:02:54.007Z,13.91
2023-05-11T05:03:53.689Z,13.91
2023-05-11T05:04:53.762Z,13.87
2023-05-11T05:05:53.534Z,13.91
2023-05-11T05:06:53.969Z,14.04
2023-05-11T05:07:53.452Z,14.00
2023-05-11T05:08:53.578Z,13.98
2023-05-11T05:09:53.410Z,14.08
2023-05-11T05:10:53.587Z,13.98
2023-05-11T05:11:53.258Z,13.94
2023-05-11T05:12:53.399Z,13.87
2023-05-11T05:13:53.485Z,14.01
2023-05-11T05:14:53.411Z,13.91
2023-05-11T05:15:53.114Z,13.87
2023-05-11T05:16:53.237Z,13.89
2023-05-11T05:17:53.196Z,13.80
2023-05-11T05:18:53.313Z,13.82
2023-05-11T05:19:52.941Z,13.83
2023-05-11T05:20:53.047Z,13.79
2023-05-11T05:21:53.112Z,13.95
2023-05-11T05:22:53.063Z,14.00
2023-05-11T05:23:52.733Z,13.97
2023-05-11T05:24:52.705Z,14.04
2023-05-11T05:25:52.647Z,14.03
2023-05-11T05:26:52.912Z,14.05
2023-05-11T05:27:52.813Z,14.03
2023-05-11T05:28:52.689Z,14.07
2023-05-11T05:29:52.464Z,14.08
2023-05-11T05:30:52.463Z,14.20
2023-05-11T05:31:52.384Z,14.16
2023-05-11T05:32:52.598Z,14.28
2023-05-11T05:33:52.586Z,14.25
2023-05-11T05:34:52.438Z,14.36
2023-05-11T05:35:52.215Z,14.41
2023-05-11T05:36:52.169Z,14.28
2023-05-11T05:37:52.126Z,14.36
2023-05-11T05:38:52.112Z,14.33
2023-05-11T05:39:52.367Z,14.33
2023-05-11T05:40:51.992Z,14.33
2023-05-11T05:41:52.207Z,14.31
2023-05-11T05:42:52.181Z,14.37
2023-05-11T05:43:51.858Z,14.45
2023-05-11T05:44:51.994Z,14.48
2023-05-11T05:45:51.805Z,14.49
2023-05-11T05:46:52.006Z,14.58
2023-05-11T05:47:51.862Z,14.61
2023-05-11T05:48:51.643Z,14.48
2023-05-11T05:49:51.837Z,14.56
2023-05-11T05:50:51.558Z,14.53
2023-05-11T05:51:51.849Z,14.62
2023-05-11T05:52:51.465Z,14.62
2023-05-11T05:53:51.557Z,14.59
2023-05-11T05:54:51.565Z,14.56
2023-05-11T05:55:51.324Z,14.63
2023-05-11T05:56:51.483Z,14.71
2023-05-11T05:57:51.427Z,14.61
2023-05-11T05:58:51.382Z,14.61
2023-05-11T05:59:51.151Z,14.58
2023-05-11T06:03:47.244Z,14.58
2023-05-11T06:04:47.150Z,14.68
2023-05-11T06:05:46.992Z,14.52
2023-05-11T06:06:46.975Z,14.58
2023-05-11T06:07:54.301Z,14.48
2023-05-11T06:08:46.844Z,14.58
2023-05-11T06:09:46.961Z,14.51
2023-05-11T06:10:46.780Z,14.62
2023-05-11T06:11:46.765Z,14.62
2023-05-11T06:12:46.714Z,14.58
2023-05-11T06:13:46.780Z,14.63
2023-05-11T06:14:46.589Z,14.79
2023-05-11T06:15:46.586Z,14.78
2023-05-11T06:16:46.580Z,14.68
2023-05-11T06:17:48.679Z,14.79
2023-05-11T06:18:46.543Z,14.81
2023-05-11T06:19:46.516Z,14.74
2023-05-11T06:20:46.330Z,14.70
2023-05-11T06:21:46.453Z,14.85
2023-05-11T06:22:46.233Z,14.79
2023-05-11T06:23:46.443Z,14.77
2023-05-11T06:24:46.140Z,14.67
2023-05-11T06:25:46.273Z,14.81
2023-05-11T06:26:46.055Z,14.63
2023-05-11T06:27:46.061Z,14.85
2023-05-11T06:28:45.979Z,14.74
2023-05-11T06:29:46.075Z,14.73
2023-05-11T06:30:45.879Z,14.70
2023-05-11T06:31:46.108Z,14.58
2023-05-11T06:32:45.845Z,14.63
2023-05-11T06:33:45.903Z,14.55
2023-05-11T06:34:45.775Z,14.61
2023-05-11T06:35:45.724Z,14.81
2023-05-11T06:36:46.743Z,14.87
2023-05-11T06:37:45.585Z,14.87
2023-05-11T06:38:45.740Z,14.87
2023-05-11T06:39:45.492Z,15.05
2023-05-11T06:40:45.498Z,15.14
2023-05-11T06:41:45.550Z,15.15
2023-05-11T06:42:46.590Z,15.22
2023-05-11T06:43:45.431Z,15.26
2023-05-11T06:44:45.392Z,15.37
2023-05-11T06:45:45.299Z,15.54
2023-05-11T06:46:45.381Z,15.62
2023-05-11T06:47:45.158Z,15.59
2023-05-11T06:48:45.101Z,15.48
2023-05-11T06:49:45.206Z,15.47
2023-05-11T06:50:45.022Z,15.36
2023-05-11T06:51:45.009Z,15.60
2023-05-11T06:52:44.927Z,15.70
2023-05-11T06:53:45.026Z,15.76
2023-05-11T06:54:45.239Z,15.88
2023-05-11T06:55:44.794Z,15.88
2023-05-11T06:56:44.846Z,16.03
2023-05-11T06:57:44.718Z,16.03
2023-05-11T06:58:44.861Z,16.13
2023-05-11T06:59:44.627Z,16.25
2023-05-11T07:00:44.663Z,16.34
2023-05-11T07:01:44.577Z,16.50
2023-05-11T07:02:44.778Z,16.72
2023-05-11T07:03:44.456Z,16.73
2023-05-11T07:04:45.575Z,16.84
2023-05-11T07:05:44.385Z,16.95
2023-05-11T07:06:44.560Z,16.97
2023-05-11T07:07:44.547Z,16.95
2023-05-11T07:08:44.247Z,17.09
2023-05-11T07:09:44.323Z,17.22
2023-05-11T07:10:44.157Z,17.27
2023-05-11T07:11:44.331Z,17.30
2023-05-11T07:12:44.126Z,17.30
2023-05-11T07:13:44.144Z,17.38
2023-05-11T07:14:43.997Z,17.52
2023-05-11T07:15:44.162Z,17.57
2023-05-11T07:16:43.948Z,17.63
2023-05-11T07:17:44.016Z,17.54
2023-05-11T07:18:44.191Z,17.60
2023-05-11T07:19:43.806Z,17.68
2023-05-11T07:20:43.782Z,17.68
2023-05-11T07:21:43.708Z,17.76
2023-05-11T07:22:43.798Z,17.72
2023-05-11T07:23:43.642Z,17.79
2023-05-11T07:24:43.588Z,17.75
2023-05-11T07:25:43.627Z,17.88
2023-05-11T07:26:43.491Z,17.91
2023-05-11T07:27:43.841Z,17.88
2023-05-11T07:28:43.417Z,17.86
2023-05-11T07:29:43.435Z,17.76
2023-05-11T07:30:43.445Z,17.73
2023-05-11T07:31:43.324Z,17.73
2023-05-11T07:32:43.496Z,17.66
2023-05-11T07:33:43.239Z,17.73
2023-05-11T07:34:43.271Z,17.63
2023-05-11T07:35:43.353Z,17.71
2023-05-11T07:36:43.075Z,17.72
2023-05-11T07:37:43.090Z,17.75
2023-05-11T07:38:42.995Z,17.84
2023-05-11T07:39:43.109Z,17.95
2023-05-11T07:40:42.934Z,17.95
2023-05-11T07:41:42.914Z,17.97
2023-05-11T07:42:42.825Z,18.02
2023-05-11T07:43:42.934Z,18.13
2023-05-11T07:44:42.747Z,18.02
2023-05-11T07:45:43.980Z,18.11
2023-05-11T07:46:42.707Z,18.08
2023-05-11T07:47:42.812Z,18.16
2023-05-11T07:48:42.577Z,18.19
2023-05-11T07:49:43.993Z,18.23
2023-05-11T07:50:42.541Z,18.27
2023-05-11T07:51:42.488Z,18.27
2023-05-11T07:52:42.664Z,18.37
2023-05-11T07:53:42.384Z,18.34
2023-05-11T07:54:42.337Z,18.37
2023-05-11T07:55:43.017Z,18.28
2023-05-11T07:56:42.258Z,18.36
2023-05-11T07:57:42.421Z,18.36
2023-05-11T07:58:42.161Z,18.48
2023-05-11T07:59:42.231Z,18.53
2023-05-11T08:00:42.243Z,18.43
2023-05-11T08:01:42.110Z,18.52
2023-05-11T08:02:42.326Z,18.46
2023-05-11T08:03:41.955Z,18.45
2023-05-11T08:04:41.957Z,18.45
2023-05-11T08:05:42.066Z,18.43
2023-05-11T08:06:41.833Z,18.15
2023-05-11T08:07:41.914Z,17.97
2023-05-11T08:08:41.984Z,17.87
2023-05-11T08:09:41.711Z,17.88
2023-05-11T08:10:41.803Z,17.75
2023-05-11T08:11:41.653Z,17.79
2023-05-11T08:12:41.592Z,17.73
2023-05-11T08:13:41.539Z,17.66
2023-05-11T08:14:41.621Z,17.73
2023-05-11T08:15:41.485Z,17.59
2023-05-11T08:16:42.474Z,17.72
2023-05-11T08:17:41.521Z,17.68
2023-05-11T08:18:41.571Z,17.66
2023-05-11T08:19:41.468Z,17.71
2023-05-11T08:20:41.253Z,17.75
2023-05-11T08:21:41.288Z,17.87
2023-05-11T08:22:41.173Z,17.97
2023-05-11T08:23:42.013Z,18.03
2023-05-11T08:24:42.364Z,18.18
2023-05-11T08:25:41.101Z,18.21
2023-05-11T08:26:41.006Z,18.34
2023-05-11T08:27:41.106Z,18.45
2023-05-11T08:28:40.945Z,18.51
2023-05-11T08:29:41.123Z,18.60
2023-05-11T08:30:41.067Z,18.73
2023-05-11T08:31:40.990Z,18.88
2023-05-11T08:32:50.494Z,18.81
2023-05-11T08:33:41.005Z,18.76
2023-05-11T08:34:40.811Z,18.79
2023-05-11T08:35:40.761Z,18.71
2023-05-11T08:36:40.822Z,18.67
2023-05-11T08:37:40.778Z,18.64
2023-05-11T08:38:40.523Z,18.42
2023-05-11T08:39:47.427Z,18.37
2023-05-11T08:40:40.830Z,18.33
2023-05-11T08:41:40.383Z,18.16
2023-05-11T08:42:40.341Z,17.87
2023-05-11T08:43:40.522Z,17.76
2023-05-11T08:44:40.260Z,17.71
2023-05-11T08:45:42.329Z,17.71
2023-05-11T08:46:40.285Z,17.63
2023-05-11T08:47:40.157Z,17.59
2023-05-11T08:48:40.097Z,17.65
2023-05-11T08:49:40.264Z,17.69
2023-05-11T08:50:40.028Z,17.72
2023-05-11T08:51:40.035Z,17.68
2023-05-11T08:52:40.065Z,17.69
2023-05-11T08:53:40.072Z,17.71
2023-05-11T08:54:39.845Z,17.68
2023-05-11T08:55:40.082Z,17.71
2023-05-11T08:56:39.762Z,17.69
2023-05-11T08:57:40.098Z,17.66
2023-05-11T08:58:39.722Z,17.75
2023-05-11T08:59:40.034Z,17.78
2023-05-11T09:00:39.713Z,17.78
2023-05-11T09:01:39.585Z,17.86
2023-05-11T09:02:39.767Z,17.90
2023-05-11T09:03:39.488Z,17.84
2023-05-11T09:04:39.752Z,17.76
2023-05-11T09:05:39.454Z,17.86
2023-05-11T09:06:39.453Z,17.87
2023-05-11T09:07:39.305Z,17.95
2023-05-11T09:08:39.403Z,17.98
2023-05-11T09:09:39.225Z,17.98
2023-05-11T09:10:39.372Z,18.16
2023-05-11T09:11:39.144Z,18.30
2023-05-11T09:12:39.100Z,18.39
2023-05-11T09:13:39.208Z,18.42
2023-05-11T09:14:39.019Z,18.36
2023-05-11T09:15:40.246Z,18.37
2023-05-11T09:16:39.031Z,18.45
2023-05-11T09:17:38.948Z,18.39
2023-05-11T09:18:39.074Z,18.52
2023-05-11T09:19:38.833Z,18.46
2023-05-11T09:20:38.842Z,18.51
2023-05-11T09:21:38.774Z,18.68
2023-05-11T09:22:39.060Z,18.83
2023-05-11T09:23:38.866Z,18.97
2023-05-11T09:24:38.615Z,18.97
2023-05-11T09:25:38.675Z,19.04
2023-05-11T09:26:38.527Z,18.98
2023-05-11T09:27:39.851Z,19.22
2023-05-11T09:29:38.499Z,19.12
2023-05-11T09:30:38.501Z,19.12
2023-05-11T09:31:38.593Z,19.00
2023-05-11T09:32:38.531Z,18.94
2023-05-11T09:33:38.251Z,18.98
2023-05-11T09:34:43.201Z,18.94
2023-05-11T09:35:38.365Z,18.79
2023-05-11T09:36:38.337Z,18.57
2023-05-11T09:37:38.098Z,18.60
2023-05-11T09:38:38.152Z,18.49
2023-05-11T09:39:42.101Z,18.43
2023-05-11T09:40:38.015Z,18.41
2023-05-11T09:41:37.933Z,18.36
2023-05-11T09:42:38.998Z,18.27
2023-05-11T09:43:37.847Z,18.36
2023-05-11T09:44:37.997Z,18.31
2023-05-11T09:45:38.047Z,18.36
2023-05-11T09:46:38.872Z,18.45
2023-05-11T09:47:37.731Z,18.49
2023-05-11T09:48:38.856Z,18.37
2023-05-11T09:49:37.610Z,18.45
2023-05-11T09:50:37.626Z,18.49
2023-05-11T09:51:37.514Z,18.57
2023-05-11T09:52:38.674Z,18.52
2023-05-11T09:53:37.443Z,18.53
2023-05-11T09:54:37.437Z,18.63
2023-05-11T09:55:37.658Z,18.64
2023-05-11T09:56:37.325Z,18.64
2023-05-11T09:57:37.471Z,18.73
2023-05-11T09:58:37.280Z,18.70
2023-05-11T09:59:37.292Z,18.81
2023-05-11T10:00:37.164Z,18.81
2023-05-11T10:01:37.343Z,19.01
2023-05-11T10:02:37.118Z,18.94
2023-05-11T10:03:37.172Z,19.11
2023-05-11T10:04:37.173Z,19.07
2023-05-11T10:05:38.167Z,19.16
2023-05-11T10:06:36.911Z,19.15
2023-05-11T10:07:37.137Z,19.32
2023-05-11T10:08:36.830Z,19.34
2023-05-11T10:09:38.333Z,19.42
2023-05-11T10:10:37.019Z,19.49
2023-05-11T10:11:36.704Z,19.56
2023-05-11T10:12:36.761Z,19.48
2023-05-11T10:13:36.828Z,19.48
2023-05-11T10:14:36.784Z,19.53
2023-05-11T10:15:36.611Z,19.60
2023-05-11T10:16:36.754Z,19.71
2023-05-11T10:17:36.479Z,19.56
2023-05-11T10:18:36.659Z,19.66
2023-05-11T10:19:36.386Z,19.41
2023-05-11T10:20:36.616Z,19.34
2023-05-11T10:21:36.304Z,19.38
2023-05-11T10:22:36.490Z,19.44
2023-05-11T10:23:36.227Z,19.41
2023-05-11T10:24:36.439Z,19.44
2023-05-11T10:25:36.157Z,19.45
2023-05-11T10:26:36.257Z,19.48
2023-05-11T10:27:36.060Z,19.42
2023-05-11T10:28:37.286Z,19.39
2023-05-11T10:29:35.987Z,19.22
2023-05-11T10:30:36.277Z,19.16
2023-05-11T10:31:35.919Z,19.17
2023-05-11T10:32:36.138Z,19.11
2023-05-11T10:33:35.822Z,19.07
2023-05-11T10:34:35.898Z,18.94
2023-05-11T10:35:35.742Z,18.81
2023-05-11T10:36:35.919Z,18.49
2023-05-11T10:37:35.661Z,18.48
2023-05-11T10:38:35.725Z,18.37
2023-05-11T10:39:35.777Z,18.23
2023-05-11T10:40:35.533Z,18.15
2023-05-11T10:41:35.501Z,18.11
2023-05-11T10:42:35.541Z,18.15
2023-05-11T10:43:35.430Z,18.28
2023-05-11T10:44:35.743Z,18.30
2023-05-11T10:45:35.450Z,18.37
2023-05-11T10:46:35.286Z,18.42
2023-05-11T10:47:35.428Z,18.52
2023-05-11T10:48:35.217Z,18.76
2023-05-11T10:49:35.398Z,19.17
2023-05-11T10:50:35.129Z,19.66
2023-05-11T10:51:35.206Z,20.07
2023-05-11T10:52:35.367Z,20.52
2023-05-11T10:53:35.122Z,20.78
2023-05-11T10:54:34.968Z,21.29
2023-05-11T10:55:36.169Z,21.70
2023-05-11T10:56:34.918Z,22.08
2023-05-11T10:57:34.936Z,22.46
2023-05-11T10:58:34.844Z,22.58
2023-05-11T10:59:34.772Z,22.53
2023-05-11T11:00:56.989Z,22.40
2023-05-11T11:01:34.782Z,22.40
2023-05-11T11:02:34.812Z,22.28
2023-05-11T11:03:34.624Z,22.34
2023-05-11T11:04:55.689Z,22.21
2023-05-11T11:05:34.885Z,22.30
2023-05-11T11:06:34.818Z,22.22
2023-05-11T11:07:34.474Z,22.38
2023-05-11T11:08:34.828Z,22.30
2023-05-11T11:09:34.621Z,22.14
2023-05-11T11:10:34.355Z,22.16
2023-05-11T11:11:34.430Z,22.23
2023-05-11T11:12:34.292Z,22.18
2023-05-11T11:13:35.672Z,22.15
2023-05-11T11:14:34.233Z,22.00
2023-05-11T11:15:34.315Z,22.01
2023-05-11T11:16:35.301Z,21.84
2023-05-11T11:17:34.111Z,21.81
2023-05-11T11:18:34.296Z,21.68
2023-05-11T11:19:34.016Z,21.53
2023-05-11T11:20:34.099Z,21.40
2023-05-11T11:21:34.154Z,21.26
2023-05-11T11:22:34.116Z,21.04
2023-05-11T11:23:33.864Z,20.88
2023-05-11T11:24:33.918Z,20.88
2023-05-11T11:25:33.786Z,20.86
2023-05-11T11:26:33.929Z,20.85
2023-05-11T11:27:33.708Z,20.86
2023-05-11T11:28:34.762Z,20.80
2023-05-11T11:29:33.649Z,21.00
2023-05-11T11:30:33.753Z,21.08
2023-05-11T11:31:33.599Z,21.19
2023-05-11T11:32:33.826Z,21.28
2023-05-11T11:33:33.477Z,21.41
2023-05-11T11:34:33.807Z,21.68
2023-05-11T11:35:33.400Z,21.72
2023-05-11T11:36:33.594Z,21.78
2023-05-11T11:37:33.352Z,21.70
2023-05-11T11:38:33.269Z,21.69
2023-05-11T11:39:33.239Z,21.74
2023-05-11T11:40:43.183Z,21.66
2023-05-11T11:41:33.473Z,21.84
2023-05-11T11:42:33.438Z,21.80
2023-05-11T11:43:33.084Z,21.83
2023-05-11T11:44:33.304Z,22.01
2023-05-11T11:45:33.032Z,22.31
2023-05-11T11:46:33.335Z,22.68
2023-05-11T11:47:35.222Z,23.08
2023-05-11T11:48:33.087Z,23.39
2023-05-11T11:49:32.850Z,23.99
2023-05-11T11:50:32.808Z,24.40
2023-05-11T11:51:32.780Z,25.03
2023-05-11T11:52:32.892Z,25.61
2023-05-11T11:53:32.721Z,26.31
2023-05-11T11:54:34.746Z,26.88
2023-05-11T11:55:32.625Z,27.78
2023-05-11T11:56:32.713Z,28.13
2023-05-11T11:57:34.804Z,28.33
2023-05-11T11:58:32.524Z,28.49
2023-05-11T11:59:32.742Z,28.93
2023-05-11T12:00:32.466Z,29.13
2023-05-11T12:01:32.555Z,28.96
2023-05-11T12:02:32.481Z,28.52
2023-05-11T12:03:32.692Z,27.73
2023-05-11T12:04:32.550Z,27.61
2023-05-11T12:05:32.300Z,27.11
2023-05-11T12:06:33.404Z,26.82
2023-05-11T12:07:32.224Z,26.88
2023-05-11T12:08:32.178Z,26.76
2023-05-11T12:09:32.470Z,26.81
2023-05-11T12:10:32.121Z,27.13
2023-05-11T12:11:33.227Z,27.63
2023-05-11T12:12:32.045Z,28.03
2023-05-11T12:13:32.456Z,28.47
2023-05-11T12:14:32.005Z,28.72
2023-05-11T12:15:33.059Z,29.03
2023-05-11T12:16:31.961Z,29.39
2023-05-11T12:17:34.321Z,29.99
2023-05-11T12:18:31.996Z,30.36
2023-05-11T12:19:32.055Z,30.44
2023-05-11T12:20:31.790Z,30.24
2023-05-11T12:21:33.936Z,30.93
2023-05-11T12:22:31.749Z,31.54
2023-05-11T12:23:31.884Z,32.26
2023-05-11T12:24:31.655Z,32.79
2023-05-11T12:25:32.993Z,32.88
2023-05-11T12:26:31.594Z,33.13
2023-05-11T12:27:31.704Z,33.17
2023-05-11T12:28:31.765Z,33.08
2023-05-11T12:29:31.722Z,32.53
2023-05-11T12:30:31.472Z,32.46
2023-05-11T12:31:31.509Z,32.42
2023-05-11T12:32:31.534Z,32.30
2023-05-11T12:33:31.558Z,31.77
2023-05-11T12:34:32.194Z,31.74
2023-05-11T12:35:32.617Z,31.93
2023-05-11T12:36:31.294Z,31.77
2023-05-11T12:37:31.272Z,31.63
2023-05-11T12:38:31.230Z,31.45
2023-05-11T12:39:32.424Z,31.17
2023-05-11T12:40:32.520Z,30.81
2023-05-11T12:41:33.255Z,30.78
2023-05-11T12:42:32.242Z,30.70
2023-05-11T12:43:31.154Z,30.51
2023-05-11T12:44:31.046Z,30.29
2023-05-11T12:45:31.239Z,29.46
2023-05-11T12:46:31.135Z,28.64
2023-05-11T12:47:31.176Z,28.30
2023-05-11T12:48:30.946Z,27.72
2023-05-11T12:49:30.899Z,27.37
2023-05-11T12:50:31.982Z,26.86
2023-05-11T12:51:31.015Z,26.49
2023-05-11T12:52:31.003Z,25.99
2023-05-11T12:53:30.758Z,25.81
2023-05-11T12:54:30.998Z,25.37
2023-05-11T12:55:30.813Z,25.14